createdAt,value
2023-12-08T00:02:17.378Z,-0.50
2023-12-08T00:04:45.681Z,-0.50
2023-12-08T00:07:14.736Z,-0.50
2023-12-08T00:09:42.997Z,-0.50
2023-12-08T00:12:11.326Z,-0.60
2023-12-08T00:14:39.623Z,-0.60
2023-12-08T00:17:11.704Z,-0.60
2023-12-08T00:19:42.180Z,-0.60
2023-12-08T00:22:10.584Z,-0.60
2023-12-08T00:24:38.803Z,-0.60
2023-12-08T00:27:07.772Z,-0.50
2023-12-08T00:29:36.076Z,-0.60
2023-12-08T00:32:04.400Z,-0.50
2023-12-08T00:34:34.307Z,-0.60
2023-12-08T00:37:02.623Z,-0.70
2023-12-08T00:39:30.882Z,-0.70
2023-12-08T00:41:59.202Z,-0.60
2023-12-08T00:44:27.751Z,-0.70
2023-12-08T00:46:56.016Z,-0.70
2023-12-08T00:49:24.792Z,-0.70
2023-12-08T00:51:54.567Z,-0.60
2023-12-08T00:54:23.045Z,-0.60
2023-12-08T00:56:51.362Z,-0.70
2023-12-08T00:59:19.611Z,-0.80
2023-12-08T01:01:50.453Z,-0.80
2023-12-08T01:04:18.865Z,-0.80
2023-12-08T01:06:47.098Z,-0.80
2023-12-08T01:09:16.877Z,-0.80
2023-12-08T01:11:45.318Z,-0.80
2023-12-08T01:14:13.638Z,-0.80
2023-12-08T01:16:43.107Z,-0.90
2023-12-08T01:19:13.752Z,-0.90
2023-12-08T01:21:42.535Z,-0.80
2023-12-08T01:24:10.902Z,-0.80
2023-12-08T01:26:45.186Z,-0.80
2023-12-08T01:29:13.658Z,-0.80
2023-12-08T01:31:42.610Z,-0.70
2023-12-08T01:34:10.923Z,-0.60
2023-12-08T01:36:43.198Z,-0.70
2023-12-08T01:39:12.981Z,-0.70
2023-12-08T01:41:42.710Z,-0.70
2023-12-08T01:44:11.035Z,-0.70
2023-12-08T01:46:44.693Z,-0.70
2023-12-08T01:49:13.414Z,-0.80
2023-12-08T01:51:41.801Z,-0.80
2023-12-08T01:54:10.206Z,-0.80
2023-12-08T01:56:39.841Z,-0.80
2023-12-08T01:59:10.889Z,-0.80
2023-12-08T02:01:39.728Z,-0.70
2023-12-08T02:04:08.212Z,-0.70
2023-12-08T02:06:38.148Z,-0.70
2023-12-08T02:09:09.061Z,-0.80
2023-12-08T02:11:38.231Z,-0.80
2023-12-08T02:14:06.798Z,-0.90
2023-12-08T02:16:47.980Z,-0.90
2023-12-08T02:19:19.094Z,-0.80
2023-12-08T02:21:48.086Z,-0.70
2023-12-08T02:24:20.655Z,-0.80
2023-12-08T02:26:49.641Z,-0.70
2023-12-08T02:29:18.304Z,-0.80
2023-12-08T02:31:49.830Z,-0.80
2023-12-08T02:34:18.961Z,-0.90
2023-12-08T02:36:48.740Z,-0.80
2023-12-08T02:39:21.105Z,-0.80
2023-12-08T02:41:49.581Z,-0.80
2023-12-08T02:44:17.930Z,-0.80
2023-12-08T02:46:46.444Z,-0.90
2023-12-08T02:49:14.914Z,-0.90
2023-12-08T02:51:43.185Z,-0.80
2023-12-08T02:54:11.613Z,-0.80
2023-12-08T02:56:41.366Z,-0.70
2023-12-08T02:59:09.598Z,-0.70
2023-12-08T03:01:37.847Z,-0.70
2023-12-08T03:04:06.324Z,-0.80
2023-12-08T03:06:34.613Z,-0.80
2023-12-08T03:09:02.944Z,-0.80
2023-12-08T03:11:31.321Z,-0.90
2023-12-08T03:14:03.203Z,-0.90
2023-12-08T03:16:31.644Z,-0.90
2023-12-08T03:19:00.073Z,-0.90
2023-12-08T03:21:29.304Z,-0.90
2023-12-08T03:23:57.756Z,-1.00
2023-12-08T03:26:25.992Z,-1.00
2023-12-08T03:28:54.244Z,-0.90
2023-12-08T03:31:27.019Z,-0.90
2023-12-08T03:33:55.770Z,-0.80
2023-12-08T03:36:24.166Z,-0.80
2023-12-08T03:38:52.547Z,-0.80
2023-12-08T03:41:20.872Z,-0.80
2023-12-08T03:43:49.164Z,-0.80
2023-12-08T03:46:20.270Z,-0.80
2023-12-08T03:48:51.884Z,-0.80
2023-12-08T03:51:21.795Z,-0.80
2023-12-08T03:53:50.300Z,-0.80
2023-12-08T03:56:19.016Z,-0.80
2023-12-08T03:58:47.269Z,-0.80
2023-12-08T04:01:18.652Z,-0.80
2023-12-08T04:03:50.790Z,-0.80
2023-12-08T04:06:19.303Z,-0.80
2023-12-08T04:08:47.604Z,-0.80
2023-12-08T04:11:15.928Z,-0.80
2023-12-08T04:13:44.167Z,-0.90
2023-12-08T04:16:12.910Z,-0.90
2023-12-08T04:18:41.386Z,-0.90
2023-12-08T04:21:11.162Z,-0.90
2023-12-08T04:23:39.446Z,-0.90
2023-12-08T04:26:09.328Z,-0.90
2023-12-08T04:28:37.797Z,-1.00
2023-12-08T04:31:06.787Z,-0.90
2023-12-08T04:33:35.561Z,-1.00
2023-12-08T04:36:04.459Z,-0.90
2023-12-08T04:38:34.166Z,-0.90
2023-12-08T04:41:02.770Z,-0.90
2023-12-08T04:43:31.022Z,-0.90
2023-12-08T04:45:59.490Z,-0.90
2023-12-08T04:48:27.960Z,-0.90
2023-12-08T04:50:56.734Z,-1.00
2023-12-08T04:53:24.948Z,-1.00
2023-12-08T04:55:54.615Z,-1.00
2023-12-08T04:58:23.093Z,-1.00
2023-12-08T05:00:54.005Z,-1.00
2023-12-08T05:03:24.798Z,-1.00
2023-12-08T05:05:53.075Z,-1.00
2023-12-08T05:08:21.309Z,-1.10
2023-12-08T05:10:49.541Z,-1.10
2023-12-08T05:13:19.143Z,-1.10
2023-12-08T05:15:47.450Z,-1.10
2023-12-08T05:18:15.986Z,-1.10
2023-12-08T05:20:44.519Z,-1.10
2023-12-08T05:23:12.908Z,-1.10
2023-12-08T05:25:41.222Z,-1.10
2023-12-08T05:28:09.813Z,-1.10
2023-12-08T05:30:39.513Z,-1.10
2023-12-08T05:33:07.942Z,-1.10
2023-12-08T05:35:36.230Z,-1.10
2023-12-08T05:38:04.517Z,-1.10
2023-12-08T05:40:32.828Z,-1.10
2023-12-08T05:43:01.049Z,-1.10
2023-12-08T05:45:29.288Z,-1.10
2023-12-08T05:47:59.284Z,-1.10
2023-12-08T05:50:27.957Z,-1.10
2023-12-08T05:52:56.257Z,-1.10
2023-12-08T05:55:24.569Z,-1.00
2023-12-08T05:57:53.533Z,-1.00
2023-12-08T06:00:22.146Z,-1.10
2023-12-08T06:02:50.776Z,-1.10
2023-12-08T06:05:20.590Z,-1.20
2023-12-08T06:07:48.996Z,-1.20
2023-12-08T06:10:17.830Z,-1.20
2023-12-08T06:12:46.181Z,-1.20
2023-12-08T06:15:14.683Z,-1.10
2023-12-08T06:17:43.393Z,-1.10
2023-12-08T06:20:13.930Z,-1.10
2023-12-08T06:22:44.269Z,-1.10
2023-12-08T06:25:12.591Z,-1.10
2023-12-08T06:27:40.941Z,-1.10
2023-12-08T06:30:10.366Z,-1.10
2023-12-08T06:32:40.302Z,-1.20
2023-12-08T06:35:09.493Z,-1.20
2023-12-08T06:37:37.836Z,-1.20
2023-12-08T06:40:11.220Z,-1.20
2023-12-08T06:42:39.509Z,-1.10
2023-12-08T06:45:09.993Z,-1.10
2023-12-08T06:47:38.684Z,-1.10
2023-12-08T06:50:08.158Z,-1.10
2023-12-08T06:52:36.432Z,-1.10
2023-12-08T06:55:05.165Z,-1.10
2023-12-08T06:57:35.038Z,-1.10
2023-12-08T07:00:05.780Z,-1.10
2023-12-08T07:02:34.315Z,-1.10
2023-12-08T07:05:02.703Z,-1.20
2023-12-08T07:07:31.488Z,-1.20
2023-12-08T07:10:02.106Z,-1.10
2023-12-08T07:12:31.617Z,-1.20
2023-12-08T07:15:01.251Z,-1.10
2023-12-08T07:17:32.359Z,-1.10
2023-12-08T07:20:00.819Z,-1.10
2023-12-08T07:22:30.810Z,-1.20
2023-12-08T07:24:59.082Z,-1.20
2023-12-08T07:27:28.384Z,-1.10
2023-12-08T07:29:58.476Z,-1.10
2023-12-08T07:32:28.225Z,-1.10
2023-12-08T07:34:56.518Z,-1.10
2023-12-08T07:37:25.121Z,-1.00
2023-12-08T07:39:53.434Z,-1.10
2023-12-08T07:42:21.795Z,-1.00
2023-12-08T07:44:50.157Z,-0.90
2023-12-08T07:47:18.885Z,-0.90
2023-12-08T07:49:48.601Z,-0.90
2023-12-08T07:52:19.168Z,-0.90
2023-12-08T07:54:47.454Z,-0.90
2023-12-08T07:57:15.901Z,-0.90
2023-12-08T07:59:44.324Z,-0.90
2023-12-08T08:02:12.722Z,-0.90
2023-12-08T08:04:42.451Z,-0.90
2023-12-08T08:07:12.094Z,-0.90
2023-12-08T08:09:40.609Z,-0.80
2023-12-08T08:12:10.786Z,-0.80
2023-12-08T08:14:39.959Z,-0.80
2023-12-08T08:17:08.354Z,-0.80
2023-12-08T08:19:36.663Z,-0.80
2023-12-08T08:22:28.759Z,-0.70
2023-12-08T08:24:55.362Z,-0.70
2023-12-08T08:27:23.837Z,-0.70
2023-12-08T08:29:52.281Z,-0.70
2023-12-08T08:32:20.580Z,-0.60
2023-12-08T08:34:49.105Z,-0.60
2023-12-08T08:37:17.401Z,-0.60
2023-12-08T08:39:48.019Z,-0.50
2023-12-08T08:42:18.239Z,-0.50
2023-12-08T08:44:47.476Z,-0.30
2023-12-08T08:47:15.816Z,-0.50
2023-12-08T08:49:45.015Z,-0.50
2023-12-08T08:52:14.190Z,-0.40
2023-12-08T08:54:42.582Z,-0.40
2023-12-08T08:57:11.129Z,-0.40
2023-12-08T08:59:42.970Z,-0.40
2023-12-08T09:02:11.216Z,-0.40
2023-12-08T09:04:39.455Z,-0.40
2023-12-08T09:07:07.898Z,-0.40
2023-12-08T09:09:37.829Z,-0.30
2023-12-08T09:12:08.607Z,-0.40
2023-12-08T09:14:39.605Z,-0.30
2023-12-08T09:17:09.451Z,-0.30
2023-12-08T09:19:39.321Z,-0.30
2023-12-08T09:22:09.837Z,-0.20
2023-12-08T09:24:38.096Z,-0.20
2023-12-08T09:27:06.719Z,-0.20
2023-12-08T09:29:35.451Z,-0.20
2023-12-08T09:32:03.925Z,-0.20
2023-12-08T09:34:34.849Z,-0.30
2023-12-08T09:37:26.151Z,-0.20
2023-12-08T09:39:52.649Z,0.00
2023-12-08T09:42:29.459Z,-0.10
2023-12-08T09:44:58.151Z,0.00
2023-12-08T09:47:29.117Z,0.00
2023-12-08T09:50:01.622Z,0.00
2023-12-08T09:52:31.042Z,0.00
2023-12-08T09:55:00.481Z,0.00
2023-12-08T09:57:30.910Z,0.00
2023-12-08T10:00:00.783Z,0.00
2023-12-08T10:02:29.492Z,0.10
2023-12-08T10:04:59.205Z,0.00
2023-12-08T10:07:33.190Z,0.00
2023-12-08T10:10:01.714Z,0.00
2023-12-08T10:12:30.311Z,0.00
2023-12-08T10:15:00.186Z,0.10
2023-12-08T10:17:31.200Z,0.20
2023-12-08T10:20:12.558Z,0.20
2023-12-08T10:22:49.945Z,0.20
2023-12-08T10:25:20.248Z,0.20
2023-12-08T10:27:51.158Z,0.20
2023-12-08T10:30:20.552Z,0.20
2023-12-08T10:32:49.822Z,0.30
2023-12-08T10:35:20.068Z,0.40
2023-12-08T10:37:48.411Z,0.40
2023-12-08T10:40:20.425Z,0.40
2023-12-08T10:42:50.122Z,0.60
2023-12-08T10:45:19.060Z,0.50
2023-12-08T10:47:51.816Z,0.50
2023-12-08T10:50:22.108Z,0.50
2023-12-08T10:52:52.055Z,0.50
2023-12-08T10:55:20.587Z,0.50
2023-12-08T10:57:50.589Z,0.40
2023-12-08T11:00:25.405Z,0.40
2023-12-08T11:02:58.660Z,0.50
2023-12-08T11:05:37.295Z,0.50
2023-12-08T11:08:14.455Z,0.50
2023-12-08T11:10:48.133Z,0.60
2023-12-08T11:13:25.720Z,0.60
2023-12-08T11:16:14.368Z,0.60
2023-12-08T11:18:43.732Z,0.60
2023-12-08T11:21:14.056Z,0.50
2023-12-08T11:23:43.832Z,0.60
2023-12-08T11:26:18.065Z,0.60
2023-12-08T11:29:01.546Z,0.70
2023-12-08T11:31:37.969Z,0.60
2023-12-08T11:34:13.313Z,0.70
2023-12-08T11:36:47.131Z,0.70
2023-12-08T11:39:41.644Z,0.70
2023-12-08T11:42:11.176Z,0.70
2023-12-08T11:44:41.091Z,0.80
2023-12-08T11:47:15.759Z,0.70
2023-12-08T11:49:45.407Z,0.70
2023-12-08T11:52:17.545Z,0.80
2023-12-08T11:55:14.454Z,0.80
2023-12-08T11:57:55.404Z,0.70
2023-12-08T12:00:24.049Z,0.60
2023-12-08T12:02:53.927Z,0.60
2023-12-08T12:05:23.791Z,0.60
2023-12-08T12:07:55.205Z,0.60
2023-12-08T12:10:26.636Z,0.50
2023-12-08T12:12:57.962Z,0.50
2023-12-08T12:15:27.309Z,0.50
2023-12-08T12:17:55.893Z,0.50
2023-12-08T12:20:24.254Z,0.60
2023-12-08T12:22:53.921Z,0.60
2023-12-08T12:25:22.987Z,0.60
2023-12-08T12:27:52.067Z,0.60
2023-12-08T12:30:20.406Z,0.60
2023-12-08T12:32:50.957Z,0.70
2023-12-08T12:35:20.281Z,0.70
2023-12-08T12:37:48.800Z,0.70
2023-12-08T12:40:18.491Z,0.60
2023-12-08T12:42:48.827Z,0.60
2023-12-08T12:45:29.399Z,0.60
2023-12-08T12:48:04.651Z,0.60
2023-12-08T12:50:34.333Z,0.60
2023-12-08T12:53:05.937Z,0.60
2023-12-08T12:55:35.604Z,0.60
2023-12-08T12:58:06.336Z,0.60
2023-12-08T13:00:36.632Z,0.60
2023-12-08T13:03:10.163Z,0.60
2023-12-08T13:05:47.109Z,0.60
2023-12-08T13:08:16.934Z,0.60
2023-12-08T13:10:48.275Z,0.60
2023-12-08T13:13:20.289Z,0.60
2023-12-08T13:15:51.110Z,0.70
2023-12-08T13:18:19.795Z,0.50
2023-12-08T13:20:48.316Z,0.60
2023-12-08T13:23:17.103Z,0.60
2023-12-08T13:25:47.629Z,0.50
2023-12-08T13:28:16.344Z,0.50
2023-12-08T13:30:45.522Z,0.50
2023-12-08T13:33:13.943Z,0.40
2023-12-08T13:35:42.502Z,0.30
2023-12-08T13:38:11.387Z,0.30
2023-12-08T13:40:42.145Z,0.20
2023-12-08T13:43:11.930Z,0.20
2023-12-08T13:45:42.181Z,0.20
2023-12-08T13:48:10.728Z,0.20
2023-12-08T13:50:47.436Z,0.10
2023-12-08T13:53:23.423Z,0.10
2023-12-08T13:55:52.328Z,0.10
2023-12-08T13:58:22.360Z,0.10
2023-12-08T14:00:50.757Z,0.10
2023-12-08T14:03:19.188Z,0.00
2023-12-08T14:05:47.814Z,0.00
2023-12-08T14:08:16.163Z,0.00
2023-12-08T14:10:44.782Z,0.00
2023-12-08T14:13:13.252Z,0.10
2023-12-08T14:15:43.219Z,0.00
2023-12-08T14:18:12.329Z,-0.10
2023-12-08T14:20:40.832Z,-0.10
2023-12-08T14:23:10.408Z,-0.10
2023-12-08T14:25:38.719Z,-0.10
2023-12-08T14:28:07.072Z,-0.10
2023-12-08T14:30:35.374Z,-0.10
2023-12-08T14:33:05.573Z,-0.20
2023-12-08T14:35:37.105Z,-0.20
2023-12-08T14:38:05.480Z,-0.20
2023-12-08T14:40:35.741Z,-0.20
2023-12-08T14:43:04.143Z,-0.20
2023-12-08T14:45:33.212Z,-0.20
2023-12-08T14:48:01.590Z,-0.20
2023-12-08T14:50:31.558Z,-0.30
2023-12-08T14:52:59.809Z,-0.30
2023-12-08T14:55:28.392Z,-0.20
2023-12-08T14:57:56.719Z,-0.30
2023-12-08T15:00:25.212Z,-0.30
2023-12-08T15:02:53.678Z,-0.30
2023-12-08T15:05:22.256Z,-0.30
2023-12-08T15:07:52.268Z,-0.30
2023-12-08T15:10:20.718Z,-0.30
2023-12-08T15:12:49.589Z,-0.30
2023-12-08T15:15:18.005Z,-0.30
2023-12-08T15:17:46.489Z,-0.30
2023-12-08T15:20:15.755Z,-0.40
2023-12-08T15:22:44.069Z,-0.30
2023-12-08T15:25:13.689Z,-0.40
2023-12-08T15:27:42.195Z,-0.40
2023-12-08T15:30:11.424Z,-0.50
2023-12-08T15:32:39.688Z,-0.50
2023-12-08T15:35:09.482Z,-0.40
2023-12-08T15:37:37.873Z,-0.40
2023-12-08T15:40:06.955Z,-0.40
2023-12-08T15:42:36.625Z,-0.40
2023-12-08T15:45:06.717Z,-0.40
2023-12-08T15:47:35.632Z,-0.40
2023-12-08T15:50:04.566Z,-0.40
2023-12-08T15:52:32.949Z,-0.50
2023-12-08T15:55:01.291Z,-0.50
2023-12-08T15:57:30.680Z,-0.50
2023-12-08T16:00:00.492Z,-0.60
2023-12-08T16:02:30.168Z,-0.50
2023-12-08T16:04:58.413Z,-0.50
2023-12-08T16:07:28.356Z,-0.60
2023-12-08T16:09:56.942Z,-0.50
2023-12-08T16:12:25.673Z,-0.50
2023-12-08T16:14:54.217Z,-0.50
2023-12-08T16:17:24.087Z,-0.50
2023-12-08T16:19:52.660Z,-0.60
2023-12-08T16:22:20.886Z,-0.50
2023-12-08T16:24:49.219Z,-0.60
2023-12-08T16:27:17.748Z,-0.50
2023-12-08T16:29:46.696Z,-0.50
2023-12-08T16:32:15.430Z,-0.50
2023-12-08T16:34:45.206Z,-0.60
2023-12-08T16:37:13.818Z,-0.60
2023-12-08T16:39:42.112Z,-0.50
2023-12-08T16:42:10.393Z,-0.70
2023-12-08T16:44:39.309Z,-0.70
2023-12-08T16:47:07.690Z,-0.70
2023-12-08T16:49:35.988Z,-0.70
2023-12-08T16:52:06.313Z,-0.70
2023-12-08T16:54:34.724Z,-0.70
2023-12-08T16:57:03.732Z,-0.70
2023-12-08T16:59:34.068Z,-0.80
2023-12-08T17:02:02.398Z,-0.90
2023-12-08T17:04:30.789Z,-0.70
2023-12-08T17:07:00.228Z,-0.70
2023-12-08T17:09:36.499Z,-0.80
2023-12-08T17:12:05.537Z,-0.80
2023-12-08T17:14:36.314Z,-0.90
2023-12-08T17:17:05.368Z,-0.80
2023-12-08T17:19:33.943Z,-0.90
2023-12-08T17:22:04.587Z,-0.90
2023-12-08T17:24:34.216Z,-0.90
2023-12-08T17:27:05.449Z,-0.90
2023-12-08T17:29:33.779Z,-0.90
2023-12-08T17:32:02.164Z,-0.80
2023-12-08T17:34:30.615Z,-0.80
2023-12-08T17:36:59.417Z,-0.70
2023-12-08T17:39:27.836Z,-0.70
2023-12-08T17:41:58.551Z,-0.80
2023-12-08T17:44:26.917Z,-0.80
2023-12-08T17:46:55.570Z,-0.80
2023-12-08T17:49:24.036Z,-0.80
2023-12-08T17:51:52.576Z,-0.70
2023-12-08T17:54:22.146Z,-0.70
2023-12-08T17:56:55.115Z,-0.70
2023-12-08T17:59:25.329Z,-0.80
2023-12-08T18:01:53.670Z,-0.90
2023-12-08T18:04:24.405Z,-0.90
2023-12-08T18:06:52.830Z,-1.00
2023-12-08T18:09:21.130Z,-0.90
2023-12-08T18:11:51.809Z,-0.90
2023-12-08T18:14:20.100Z,-1.00
2023-12-08T18:16:51.070Z,-1.00
2023-12-08T18:19:19.595Z,-1.00
2023-12-08T18:21:48.140Z,-1.00
2023-12-08T18:24:17.423Z,-1.00
2023-12-08T18:26:45.737Z,-1.00
2023-12-08T18:29:13.980Z,-0.90
2023-12-08T18:31:42.208Z,-0.90
2023-12-08T18:34:11.920Z,-0.90
2023-12-08T18:36:40.241Z,-0.90
2023-12-08T18:39:08.838Z,-0.90
2023-12-08T18:41:37.537Z,-0.90
2023-12-08T18:44:06.520Z,-0.90
2023-12-08T18:46:35.261Z,-1.00
2023-12-08T18:49:04.861Z,-1.00
2023-12-08T18:51:34.932Z,-1.10
2023-12-08T18:54:03.527Z,-1.10
2023-12-08T18:56:31.812Z,-1.10
2023-12-08T18:59:00.022Z,-1.10
2023-12-08T19:01:28.977Z,-1.00
2023-12-08T19:03:57.334Z,-1.00
2023-12-08T19:06:25.784Z,-1.00
2023-12-08T19:08:55.990Z,-1.00
2023-12-08T19:11:24.287Z,-1.00
2023-12-08T19:13:52.932Z,-1.00
2023-12-08T19:16:21.172Z,-1.00
2023-12-08T19:18:49.683Z,-1.10
2023-12-08T19:21:17.990Z,-1.10
2023-12-08T19:23:46.440Z,-1.10
2023-12-08T19:26:16.145Z,-1.10
2023-12-08T19:28:45.237Z,-1.10
2023-12-08T19:31:13.929Z,-1.10
2023-12-08T19:33:43.237Z,-1.10
2023-12-08T19:36:16.116Z,-1.00
2023-12-08T19:38:45.000Z,-1.00
2023-12-08T19:41:13.302Z,-1.00
2023-12-08T19:43:42.999Z,-1.00
2023-12-08T19:46:11.425Z,-1.00
2023-12-08T19:48:39.788Z,-1.00
2023-12-08T19:51:08.607Z,-1.00
2023-12-08T19:53:36.972Z,-1.00
2023-12-08T19:56:05.776Z,-0.90
2023-12-08T19:58:34.037Z,-1.00
2023-12-08T20:01:06.410Z,-1.00
2023-12-08T20:03:34.803Z,-1.00
2023-12-08T20:06:03.195Z,-1.00
2023-12-08T20:08:31.705Z,-1.00
2023-12-08T20:11:01.507Z,-1.10
2023-12-08T20:13:29.837Z,-1.10
2023-12-08T20:15:58.124Z,-1.10
2023-12-08T20:18:28.729Z,-1.20
2023-12-08T20:20:57.106Z,-1.20
2023-12-08T20:23:25.532Z,-1.20
2023-12-08T20:25:54.271Z,-1.30
2023-12-08T20:28:22.576Z,-1.30
2023-12-08T20:30:50.843Z,-1.30
2023-12-08T20:33:19.193Z,-1.30
2023-12-08T20:35:48.884Z,-1.20
2023-12-08T20:38:17.881Z,-1.20
2023-12-08T20:40:48.489Z,-1.10
2023-12-08T20:43:18.110Z,-1.20
2023-12-08T20:45:47.519Z,-1.10
2023-12-08T20:48:17.172Z,-1.20
2023-12-08T20:50:45.571Z,-1.20
2023-12-08T20:53:15.549Z,-1.20
2023-12-08T20:55:43.955Z,-1.20
2023-12-08T20:58:12.307Z,-1.20
2023-12-08T21:00:40.979Z,-1.20
2023-12-08T21:03:09.483Z,-1.10
2023-12-08T21:05:37.745Z,-1.20
2023-12-08T21:08:06.885Z,-1.20
2023-12-08T21:10:36.614Z,-1.20
2023-12-08T21:13:05.314Z,-1.20
2023-12-08T21:15:33.845Z,-1.20
2023-12-08T21:18:02.309Z,-1.30
2023-12-08T21:20:30.595Z,-1.40
2023-12-08T21:22:58.938Z,-1.40
2023-12-08T21:25:28.937Z,-1.50
2023-12-08T21:27:58.751Z,-1.50
2023-12-08T21:30:27.130Z,-1.50
2023-12-08T21:32:55.721Z,-1.50
2023-12-08T21:35:24.232Z,-1.40
2023-12-08T21:37:52.443Z,-1.50
2023-12-08T21:40:22.196Z,-1.40
2023-12-08T21:42:53.100Z,-1.40
2023-12-08T21:45:23.068Z,-1.50
2023-12-08T21:47:51.572Z,-1.50
2023-12-08T21:50:20.128Z,-1.50
2023-12-08T21:52:51.026Z,-1.60
2023-12-08T21:55:20.918Z,-1.50
2023-12-08T21:57:49.251Z,-1.60
2023-12-08T22:00:18.409Z,-1.60
2023-12-08T22:02:48.247Z,-1.60
2023-12-08T22:05:16.711Z,-1.70
2023-12-08T22:07:45.020Z,-1.60
2023-12-08T22:10:13.438Z,-1.70
2023-12-08T22:12:41.883Z,-1.70
2023-12-08T22:15:12.443Z,-1.70
2023-12-08T22:17:40.728Z,-1.70
2023-12-08T22:20:13.108Z,-1.80
2023-12-08T22:22:41.507Z,-1.80
2023-12-08T22:25:11.581Z,-1.70
2023-12-08T22:27:40.031Z,-1.70
2023-12-08T22:30:09.525Z,-1.70
2023-12-08T22:32:38.032Z,-1.70
2023-12-08T22:35:07.531Z,-1.70
2023-12-08T22:37:38.129Z,-1.60
2023-12-08T22:40:09.280Z,-1.60
2023-12-08T22:42:37.612Z,-1.50
2023-12-08T22:45:06.917Z,-1.50
2023-12-08T22:47:35.383Z,-1.60
2023-12-08T22:50:03.911Z,-1.60
2023-12-08T22:52:32.545Z,-1.70
2023-12-08T22:55:02.317Z,-1.70
2023-12-08T22:57:30.645Z,-1.60
2023-12-08T22:59:58.970Z,-1.70
2023-12-08T23:02:29.890Z,-1.60
2023-12-08T23:04:58.535Z,-1.60
2023-12-08T23:07:26.875Z,-1.70
2023-12-08T23:09:55.181Z,-1.60
2023-12-08T23:12:25.118Z,-1.60
2023-12-08T23:14:53.695Z,-1.60
2023-12-08T23:17:22.213Z,-1.60
2023-12-08T23:19:50.624Z,-1.60
2023-12-08T23:22:18.844Z,-1.50
2023-12-08T23:24:47.078Z,-1.50
2023-12-08T23:27:15.525Z,-1.50
2023-12-08T23:29:45.282Z,-1.50
2023-12-08T23:32:13.861Z,-1.50
2023-12-08T23:34:42.991Z,-1.40
2023-12-08T23:37:11.377Z,-1.40
2023-12-08T23:39:39.804Z,-1.40
2023-12-08T23:42:08.854Z,-1.40
2023-12-08T23:44:37.170Z,-1.40
2023-12-08T23:47:07.061Z,-1.40
2023-12-08T23:49:35.403Z,-1.40
2023-12-08T23:52:03.827Z,-1.40
2023-12-08T23:54:32.141Z,-1.30
2023-12-08T23:57:00.485Z,-1.30
2023-12-08T23:59:28.956Z,-1.20
